createdAt,value
2022-09-15T00:00:28.832Z,99904.66
2022-09-15T00:03:20.577Z,99908.13
2022-09-15T00:05:51.951Z,99904.56
2022-09-15T00:08:23.412Z,99907.44
2022-09-15T00:11:00.178Z,99908.06
2022-09-15T00:13:31.877Z,99908.72
2022-09-15T00:16:02.585Z,99901.66
2022-09-15T00:18:34.535Z,99902.09
2022-09-15T00:21:09.356Z,99891.09
2022-09-15T00:23:43.323Z,99894.41
2022-09-15T00:26:19.229Z,99888.59
2022-09-15T00:28:51.985Z,99893.81
2022-09-15T00:31:25.825Z,99886.72
2022-09-15T00:33:58.863Z,99885.06
2022-09-15T00:36:30.366Z,99883.63
2022-09-15T00:39:05.139Z,99893.81
2022-09-15T00:41:38.872Z,99898.06
2022-09-15T00:44:45.895Z,99899.72
2022-09-15T00:47:20.180Z,99901.19
2022-09-15T00:49:58.978Z,99899.53
2022-09-15T00:52:35.489Z,99901.78
2022-09-15T00:55:10.612Z,99897.63
2022-09-15T00:57:51.559Z,99907.19
2022-09-15T01:00:27.546Z,99894.94
2022-09-15T01:03:00.395Z,99891.16
2022-09-15T01:05:35.529Z,99893.69
2022-09-15T01:08:10.173Z,99895.53
2022-09-15T01:10:45.248Z,99904.91
2022-09-15T01:13:19.138Z,99892.84
2022-09-15T01:16:01.847Z,99899.09
2022-09-15T01:18:47.411Z,99891.59
2022-09-15T01:21:28.346Z,99896.19
2022-09-15T01:24:45.111Z,99901.19
2022-09-15T01:27:42.251Z,99905.34
2022-09-15T01:30:22.900Z,99905.34
2022-09-15T01:33:05.643Z,99908.28
2022-09-15T01:35:56.029Z,99911.16
2022-09-15T01:38:37.470Z,99919.25
2022-09-15T01:41:12.632Z,99914.28
2022-09-15T01:43:51.876Z,99916.78
2022-09-15T01:46:29.467Z,99910.56
2022-09-15T01:49:06.677Z,99913.06
2022-09-15T01:51:43.426Z,99909.28
2022-09-15T01:54:17.321Z,99909.91
2022-09-15T01:56:49.204Z,99909.50
2022-09-15T01:59:21.521Z,99901.81
2022-09-15T02:02:02.591Z,99903.03
2022-09-15T02:04:44.083Z,99909.91
2022-09-15T02:07:24.403Z,99911.16
2022-09-15T02:10:05.012Z,99908.56
2022-09-15T02:12:44.210Z,99905.44
2022-09-15T02:15:22.014Z,99903.66
2022-09-15T02:17:58.263Z,99908.28
2022-09-15T02:20:39.221Z,99915.19
2022-09-15T02:23:22.941Z,99905.19
2022-09-15T02:25:58.523Z,99906.56
2022-09-15T02:31:36.024Z,99889.94
2022-09-15T02:34:15.541Z,99905.38
2022-09-15T02:36:49.671Z,99903.22
2022-09-15T02:39:27.924Z,99910.41
2022-09-15T02:42:01.235Z,99904.91
2022-09-15T02:44:33.785Z,99904.34
2022-09-15T02:47:06.320Z,99907.84
2022-09-15T02:49:41.069Z,99909.16
2022-09-15T02:52:12.978Z,99912.88
2022-09-15T02:54:45.015Z,99912.38
2022-09-15T02:57:17.106Z,99913.16
2022-09-15T03:00:01.476Z,99917.97
2022-09-15T03:02:33.357Z,99920.69
2022-09-15T03:05:09.174Z,99913.84
2022-09-15T03:07:41.427Z,99911.50
2022-09-15T03:10:15.136Z,99917.78
2022-09-15T03:12:49.656Z,99912.59
2022-09-15T03:15:24.295Z,99908.97
2022-09-15T03:17:57.043Z,99911.88
2022-09-15T03:20:31.889Z,99896.91
2022-09-15T03:23:03.630Z,99900.88
2022-09-15T03:25:35.588Z,99901.31
2022-09-15T09:19:50.235Z,99983.75
2022-09-15T09:22:42.176Z,99979.31
2022-09-15T09:25:27.257Z,99977.19
2022-09-15T09:28:09.398Z,99978.75
2022-09-15T09:30:43.866Z,99979.19
2022-09-15T09:33:31.985Z,99975.91
2022-09-15T09:36:07.819Z,99973.41
2022-09-15T09:39:05.782Z,99981.25
2022-09-15T09:41:42.658Z,99971.78
2022-09-15T09:44:18.562Z,99979.19
2022-09-15T09:46:52.083Z,99975.75
2022-09-15T09:49:27.529Z,99974.34
2022-09-15T09:52:05.074Z,99968.97
2022-09-15T09:54:45.738Z,99970.09
2022-09-15T09:57:31.354Z,99970.69
2022-09-15T10:00:04.474Z,99977.66
2022-09-15T10:02:50.725Z,99975.03
2022-09-15T10:05:24.240Z,99975.78
2022-09-15T10:08:06.517Z,99967.53
2022-09-15T10:10:39.878Z,99967.44
2022-09-15T10:13:15.929Z,99975.00
2022-09-15T10:15:56.814Z,99981.00
2022-09-15T10:18:34.531Z,99972.94
2022-09-15T10:21:09.445Z,99975.78
2022-09-15T10:23:45.092Z,99979.66
2022-09-15T10:26:35.479Z,99977.53
2022-09-15T10:29:16.704Z,99977.44
2022-09-15T10:31:50.181Z,99974.69
2022-09-15T10:34:30.762Z,99962.63
2022-09-15T10:37:11.827Z,99977.19
2022-09-15T10:39:55.408Z,99976.81
2022-09-15T10:42:47.351Z,99973.66
2022-09-15T10:45:35.890Z,99975.59
2022-09-15T10:48:34.906Z,99965.91
2022-09-15T10:51:20.019Z,99969.59
2022-09-15T10:54:18.088Z,99965.47
2022-09-15T10:56:59.916Z,99969.78
2022-09-15T10:59:48.182Z,99972.78
2022-09-15T11:02:38.883Z,99962.94
2022-09-15T11:05:32.845Z,99965.72
2022-09-15T11:08:20.322Z,99960.03
2022-09-15T11:11:02.041Z,99966.19
2022-09-15T11:13:50.962Z,99967.53
2022-09-15T11:16:39.406Z,99967.94
2022-09-15T11:19:28.280Z,99973.28
2022-09-15T11:22:07.162Z,99972.56
2022-09-15T11:24:46.809Z,99971.38
2022-09-15T11:27:25.009Z,99964.38
2022-09-15T11:30:13.439Z,99960.59
2022-09-15T11:32:52.938Z,99957.41
2022-09-15T11:35:45.761Z,99953.47
2022-09-15T11:38:30.327Z,99956.66
2022-09-15T11:41:18.119Z,99950.56
2022-09-15T11:44:28.361Z,99958.38
2022-09-15T11:47:18.046Z,99954.72
2022-09-15T11:49:57.092Z,99960.84
2022-09-15T11:52:50.121Z,99965.56
2022-09-15T11:55:30.483Z,99967.09
2022-09-15T11:58:22.143Z,99970.13
2022-09-15T12:01:00.291Z,99961.66
2022-09-15T12:03:41.486Z,99957.75
2022-09-15T12:06:20.360Z,99975.16
2022-09-15T12:09:01.283Z,99961.91
2022-09-15T12:11:39.200Z,99967.59
2022-09-15T12:14:18.123Z,99956.81
2022-09-15T12:16:52.285Z,99958.97
2022-09-15T12:19:45.723Z,99970.31
2022-09-15T12:22:25.247Z,99969.31
2022-09-15T12:25:04.928Z,99968.66
2022-09-15T12:27:37.962Z,99958.59
2022-09-15T12:30:42.958Z,99965.31
2022-09-15T12:33:45.411Z,99966.75
2022-09-15T12:36:42.443Z,99967.94
2022-09-15T12:39:27.622Z,99963.06
2022-09-15T12:42:11.604Z,99966.53
2022-09-15T12:44:48.287Z,99960.59
2022-09-15T12:47:39.960Z,99963.69
2022-09-15T12:50:28.440Z,99956.97
2022-09-15T12:53:05.886Z,99956.00
2022-09-15T12:55:40.209Z,99953.28
2022-09-15T12:58:19.239Z,99963.56
2022-09-15T13:01:17.928Z,99954.56
2022-09-15T13:04:13.520Z,99959.56
2022-09-15T13:07:21.317Z,99956.78
2022-09-15T13:10:19.083Z,99954.00
2022-09-15T13:12:58.038Z,99948.19
2022-09-15T13:15:32.508Z,99955.53
2022-09-15T13:18:09.798Z,99943.31
2022-09-15T13:20:47.097Z,99949.13
2022-09-15T13:23:23.848Z,99949.47
2022-09-15T13:26:03.318Z,99948.84
2022-09-15T13:28:36.678Z,99945.41
2022-09-15T13:31:24.018Z,99951.00
2022-09-15T13:40:45.728Z,99941.91
2022-09-15T13:43:49.246Z,99938.97
2022-09-15T13:46:36.508Z,99936.38
2022-09-15T13:49:33.312Z,99937.78
2022-09-15T13:52:16.262Z,99936.81
2022-09-15T13:55:13.670Z,99934.44
2022-09-15T14:00:59.274Z,99932.72
2022-09-15T14:03:40.067Z,99921.44
2022-09-15T14:06:18.597Z,99925.25
2022-09-15T14:08:55.072Z,99922.63
2022-09-15T14:11:33.803Z,99933.50
2022-09-15T14:14:08.434Z,99929.47
2022-09-15T14:16:43.727Z,99917.69
2022-09-15T14:19:41.878Z,99915.13
2022-09-15T14:22:29.886Z,99916.88
2022-09-15T14:25:07.911Z,99920.28
2022-09-15T14:27:46.792Z,99913.53
2022-09-15T14:30:24.877Z,99912.69
2022-09-15T14:33:02.755Z,99915.69
2022-09-15T14:35:40.151Z,99920.94
2022-09-15T14:38:24.242Z,99918.59
2022-09-15T14:41:00.269Z,99922.34
2022-09-15T14:43:36.547Z,99927.66
2022-09-15T14:46:16.017Z,99917.56
2022-09-15T14:48:50.917Z,99926.75
2022-09-15T14:51:29.105Z,99924.34
2022-09-15T14:54:04.315Z,99930.13
2022-09-15T14:56:40.106Z,99921.97
2022-09-15T14:59:18.588Z,99913.25
2022-09-15T15:02:00.311Z,99924.19
2022-09-15T15:05:01.265Z,99919.22
2022-09-15T15:07:41.513Z,99913.59
2022-09-15T15:10:20.586Z,99921.34
2022-09-15T15:12:56.470Z,99928.22
2022-09-15T15:15:29.347Z,99927.31
2022-09-15T15:18:02.283Z,99925.13
2022-09-15T15:20:37.308Z,99932.75
2022-09-15T15:23:18.784Z,99926.56
2022-09-15T15:25:51.673Z,99923.22
2022-09-15T15:28:35.510Z,99926.25
2022-09-15T15:31:28.154Z,99935.22
2022-09-15T15:34:05.867Z,99937.94
2022-09-15T15:36:41.788Z,99939.56
2022-09-15T15:39:27.954Z,99956.13
2022-09-15T15:42:05.905Z,99954.25
2022-09-15T15:44:38.826Z,99961.81
2022-09-15T15:47:29.522Z,99965.34
2022-09-15T15:50:13.923Z,99959.97
2022-09-15T15:52:50.223Z,99964.50
2022-09-15T15:55:25.587Z,99962.41
2022-09-15T15:57:58.911Z,99977.81
2022-09-15T16:00:41.720Z,99966.31
2022-09-15T16:03:14.820Z,99971.56
2022-09-15T16:05:50.344Z,99970.66
2022-09-15T16:08:30.667Z,99968.16
2022-09-15T16:11:06.062Z,99964.00
2022-09-15T16:13:38.823Z,99973.00
2022-09-15T16:16:17.828Z,99970.06
2022-09-15T16:18:50.863Z,99978.00
2022-09-15T16:21:26.663Z,99969.53
2022-09-15T16:24:01.743Z,99967.56
2022-09-15T16:26:35.990Z,99966.16
2022-09-15T16:29:08.865Z,99966.28
2022-09-15T16:31:43.184Z,99968.97
2022-09-15T16:34:20.343Z,99966.59
2022-09-15T16:36:53.383Z,99968.69
2022-09-15T16:39:28.671Z,99979.53
2022-09-15T16:42:01.598Z,99976.19
2022-09-15T16:44:33.863Z,99974.13
2022-09-15T16:47:07.742Z,99974.00
2022-09-15T16:49:40.661Z,99977.91
2022-09-15T16:52:17.461Z,99976.84
2022-09-15T16:54:52.631Z,99979.19
2022-09-15T16:57:25.541Z,99979.78
2022-09-15T16:59:58.149Z,99980.84
2022-09-15T17:02:31.063Z,99989.50
2022-09-15T17:05:03.501Z,99981.78
2022-09-15T17:07:36.461Z,99975.44
2022-09-15T17:10:12.710Z,99976.84
2022-09-15T17:12:45.982Z,99967.22
2022-09-15T17:15:28.702Z,99973.31
2022-09-15T17:18:01.556Z,99969.94
2022-09-15T17:20:41.935Z,99977.88
2022-09-15T17:23:23.807Z,99969.28
2022-09-15T17:26:00.397Z,99973.63
2022-09-15T17:28:34.657Z,99966.59
2022-09-15T17:31:10.032Z,99982.09
2022-09-15T17:33:42.690Z,99993.47
2022-09-15T17:36:15.203Z,99994.31
2022-09-15T17:38:49.303Z,99986.41
2022-09-15T17:41:36.680Z,99987.84
2022-09-15T17:44:12.499Z,99987.22
2022-09-15T17:46:44.565Z,99979.34
2022-09-15T17:49:17.188Z,99991.19
2022-09-15T17:51:49.285Z,99989.13
2022-09-15T17:54:21.879Z,99990.81
2022-09-15T20:37:32.096Z,100052.25
2022-09-15T20:40:37.372Z,100062.88
2022-09-15T20:43:12.112Z,100054.78
2022-09-15T20:45:46.986Z,100054.94
2022-09-15T20:48:27.935Z,100047.44
2022-09-15T20:51:08.393Z,100054.72
2022-09-15T20:53:47.953Z,100047.41
2022-09-15T20:56:23.493Z,100064.41
2022-09-15T20:58:56.292Z,100057.41
2022-09-15T21:01:32.185Z,100063.84
2022-09-15T21:04:04.313Z,100068.19
2022-09-15T21:06:36.879Z,100056.63
2022-09-15T21:09:11.674Z,100051.25
2022-09-15T21:11:43.809Z,100059.88
2022-09-15T21:14:16.555Z,100059.03
2022-09-15T21:16:48.781Z,100059.63
2022-09-15T21:19:20.644Z,100058.44
2022-09-15T21:21:52.903Z,100063.03
2022-09-15T21:24:27.475Z,100063.81
2022-09-15T21:27:11.775Z,100064.81
2022-09-15T21:29:43.591Z,100061.66
2022-09-15T21:32:16.382Z,100070.03
2022-09-15T21:34:48.594Z,100059.34
2022-09-15T21:37:20.692Z,100064.00
2022-09-15T21:39:55.310Z,100065.75
2022-09-15T21:42:28.752Z,100063.78
2022-09-15T21:45:00.652Z,100062.63
2022-09-15T21:47:34.319Z,100074.97
2022-09-15T21:50:06.439Z,100074.72
2022-09-15T21:52:38.478Z,100074.50
2022-09-15T21:55:13.358Z,100072.03
2022-09-15T21:57:45.420Z,100082.03
2022-09-15T22:00:18.379Z,100087.63
2022-09-15T22:02:54.618Z,100087.69
2022-09-15T22:05:26.480Z,100090.72
2022-09-15T22:08:01.578Z,100098.19
2022-09-15T22:10:39.618Z,100097.41
2022-09-15T22:13:14.099Z,100105.94
2022-09-15T22:15:45.900Z,100106.00
2022-09-15T22:18:18.019Z,100104.88
2022-09-15T22:20:49.563Z,100109.00
2022-09-15T22:23:21.359Z,100105.25
2022-09-15T22:25:55.538Z,100104.06
2022-09-15T22:28:27.378Z,100107.91
2022-09-15T22:31:03.307Z,100107.00
2022-09-15T22:33:35.340Z,100113.75
2022-09-15T22:36:06.983Z,100114.25
2022-09-15T22:38:39.439Z,100109.59
2022-09-15T22:41:28.278Z,100114.84
2022-09-15T22:44:00.148Z,100101.31
2022-09-15T22:46:31.819Z,100105.91
2022-09-15T22:49:03.560Z,100117.16
2022-09-15T22:51:35.195Z,100121.69
2022-09-15T22:54:07.280Z,100107.00
2022-09-15T22:56:41.407Z,100114.59
2022-09-15T22:59:13.899Z,100115.66
2022-09-15T23:01:45.741Z,100100.59
2022-09-15T23:04:17.638Z,100113.16
2022-09-15T23:06:49.326Z,100115.09
2022-09-15T23:09:21.561Z,100113.47
2022-09-15T23:11:55.718Z,100118.13
2022-09-15T23:14:27.561Z,100110.66
2022-09-15T23:16:59.018Z,100112.97
2022-09-15T23:19:30.781Z,100100.78
2022-09-15T23:22:02.360Z,100105.66
2022-09-15T23:24:34.061Z,100110.88
2022-09-15T23:27:08.340Z,100109.72
2022-09-15T23:29:39.993Z,100114.31
2022-09-15T23:32:17.358Z,100110.59
2022-09-15T23:34:49.358Z,100110.63
2022-09-15T23:37:20.800Z,100107.31
2022-09-15T23:39:52.624Z,100109.13
2022-09-15T23:42:26.820Z,100107.97
2022-09-15T23:44:58.599Z,100109.53
2022-09-15T23:47:30.102Z,100110.75
2022-09-15T23:50:01.900Z,100113.63
2022-09-15T23:52:42.641Z,100116.31
2022-09-15T23:55:14.419Z,100124.16
2022-09-15T23:57:48.719Z,100115.53
